sensor_id;sensor_type;location;lat;lon;timestamp;P1;durP1;ratioP1;P2;durP2;ratioP2
20478;SDS011;10398;52.490;13.434;2022-12-07T00:01:28;12.43;;;4.17;;
20478;SDS011;10398;52.490;13.434;2022-12-07T00:03:55;8.13;;;3.30;;
20478;SDS011;10398;52.490;13.434;2022-12-07T00:06:25;11.33;;;4.13;;
20478;SDS011;10398;52.490;13.434;2022-12-07T00:08:51;9.00;;;3.73;;
20478;SDS011;10398;52.490;13.434;2022-12-07T00:11:18;11.53;;;4.63;;
20478;SDS011;10398;52.490;13.434;2022-12-07T00:13:45;8.70;;;3.70;;
20478;SDS011;10398;52.490;13.434;2022-12-07T00:16:16;8.07;;;3.40;;
20478;SDS011;10398;52.490;13.434;2022-12-07T00:18:44;9.40;;;3.13;;
20478;SDS011;10398;52.490;13.434;2022-12-07T00:23:56;11.83;;;3.80;;
20478;SDS011;10398;52.490;13.434;2022-12-07T00:26:29;9.07;;;3.67;;
20478;SDS011;10398;52.490;13.434;2022-12-07T00:28:57;12.50;;;3.90;;
20478;SDS011;10398;52.490;13.434;2022-12-07T00:31:29;8.60;;;3.20;;
20478;SDS011;10398;52.490;13.434;2022-12-07T00:33:58;7.43;;;3.43;;
20478;SDS011;10398;52.490;13.434;2022-12-07T00:36:24;9.90;;;3.67;;
20478;SDS011;10398;52.490;13.434;2022-12-07T00:38:50;7.93;;;3.73;;
20478;SDS011;10398;52.490;13.434;2022-12-07T00:41:20;9.23;;;3.57;;
20478;SDS011;10398;52.490;13.434;2022-12-07T00:43:47;8.10;;;3.53;;
20478;SDS011;10398;52.490;13.434;2022-12-07T00:46:14;10.70;;;3.70;;
20478;SDS011;10398;52.490;13.434;2022-12-07T00:48:41;7.90;;;3.67;;
20478;SDS011;10398;52.490;13.434;2022-12-07T00:51:07;5.33;;;2.83;;
20478;SDS011;10398;52.490;13.434;2022-12-07T00:53:35;7.10;;;3.30;;
20478;SDS011;10398;52.490;13.434;2022-12-07T00:56:07;6.47;;;3.27;;
20478;SDS011;10398;52.490;13.434;2022-12-07T00:58:39;6.77;;;3.33;;
20478;SDS011;10398;52.490;13.434;2022-12-07T01:01:05;7.50;;;3.30;;
20478;SDS011;10398;52.490;13.434;2022-12-07T01:03:32;7.17;;;3.00;;
20478;SDS011;10398;52.490;13.434;2022-12-07T01:05:58;8.37;;;2.90;;
20478;SDS011;10398;52.490;13.434;2022-12-07T01:08:24;11.13;;;3.43;;
20478;SDS011;10398;52.490;13.434;2022-12-07T01:10:57;6.77;;;3.07;;
20478;SDS011;10398;52.490;13.434;2022-12-07T01:13:30;7.57;;;3.03;;
20478;SDS011;10398;52.490;13.434;2022-12-07T01:16:00;5.93;;;2.83;;
20478;SDS011;10398;52.490;13.434;2022-12-07T01:18:28;8.27;;;3.10;;
20478;SDS011;10398;52.490;13.434;2022-12-07T01:21:14;6.20;;;2.80;;
20478;SDS011;10398;52.490;13.434;2022-12-07T01:23:41;8.37;;;3.13;;
20478;SDS011;10398;52.490;13.434;2022-12-07T01:26:10;5.97;;;2.90;;
20478;SDS011;10398;52.490;13.434;2022-12-07T01:28:37;10.00;;;3.13;;
20478;SDS011;10398;52.490;13.434;2022-12-07T01:31:07;6.53;;;2.67;;
20478;SDS011;10398;52.490;13.434;2022-12-07T01:33:37;6.93;;;3.30;;
20478;SDS011;10398;52.490;13.434;2022-12-07T01:36:08;4.90;;;2.23;;
20478;SDS011;10398;52.490;13.434;2022-12-07T01:38:45;6.40;;;2.50;;
20478;SDS011;10398;52.490;13.434;2022-12-07T01:41:12;6.10;;;2.33;;
20478;SDS011;10398;52.490;13.434;2022-12-07T01:46:38;9.60;;;2.37;;
20478;SDS011;10398;52.490;13.434;2022-12-07T01:49:05;4.10;;;2.33;;
20478;SDS011;10398;52.490;13.434;2022-12-07T01:51:34;5.67;;;2.80;;
20478;SDS011;10398;52.490;13.434;2022-12-07T01:54:02;4.80;;;2.13;;
20478;SDS011;10398;52.490;13.434;2022-12-07T01:56:30;8.33;;;2.30;;
20478;SDS011;10398;52.490;13.434;2022-12-07T01:58:57;7.73;;;2.70;;
20478;SDS011;10398;52.490;13.434;2022-12-07T02:01:25;5.13;;;2.53;;
20478;SDS011;10398;52.490;13.434;2022-12-07T02:03:51;4.83;;;2.33;;
20478;SDS011;10398;52.490;13.434;2022-12-07T02:06:19;6.50;;;2.40;;
20478;SDS011;10398;52.490;13.434;2022-12-07T02:08:48;5.00;;;2.57;;
20478;SDS011;10398;52.490;13.434;2022-12-07T02:11:14;4.97;;;2.40;;
20478;SDS011;10398;52.490;13.434;2022-12-07T02:13:41;7.23;;;2.63;;
20478;SDS011;10398;52.490;13.434;2022-12-07T02:18:52;3.37;;;2.00;;
20478;SDS011;10398;52.490;13.434;2022-12-07T02:32:24;4.93;;;2.10;;
20478;SDS011;10398;52.490;13.434;2022-12-07T02:34:55;4.97;;;2.20;;
20478;SDS011;10398;52.490;13.434;2022-12-07T02:37:39;3.57;;;1.67;;
20478;SDS011;10398;52.490;13.434;2022-12-07T02:40:19;5.70;;;2.37;;
20478;SDS011;10398;52.490;13.434;2022-12-07T02:42:51;4.50;;;1.83;;
20478;SDS011;10398;52.490;13.434;2022-12-07T02:45:22;4.27;;;2.30;;
20478;SDS011;10398;52.490;13.434;2022-12-07T02:47:51;5.33;;;2.23;;
20478;SDS011;10398;52.490;13.434;2022-12-07T02:50:20;7.13;;;2.43;;
20478;SDS011;10398;52.490;13.434;2022-12-07T02:52:46;4.97;;;2.20;;
20478;SDS011;10398;52.490;13.434;2022-12-07T02:55:12;5.10;;;2.33;;
20478;SDS011;10398;52.490;13.434;2022-12-07T03:00:19;5.17;;;2.27;;
20478;SDS011;10398;52.490;13.434;2022-12-07T03:11:06;3.43;;;1.80;;
20478;SDS011;10398;52.490;13.434;2022-12-07T03:13:42;5.43;;;2.40;;
20478;SDS011;10398;52.490;13.434;2022-12-07T03:16:35;6.10;;;2.07;;
20478;SDS011;10398;52.490;13.434;2022-12-07T03:19:07;6.83;;;2.57;;
20478;SDS011;10398;52.490;13.434;2022-12-07T03:21:40;5.10;;;2.40;;
20478;SDS011;10398;52.490;13.434;2022-12-07T03:24:09;4.17;;;2.17;;
20478;SDS011;10398;52.490;13.434;2022-12-07T03:26:41;5.13;;;1.83;;
20478;SDS011;10398;52.490;13.434;2022-12-07T03:29:15;7.13;;;2.73;;
20478;SDS011;10398;52.490;13.434;2022-12-07T03:31:48;5.93;;;2.33;;
20478;SDS011;10398;52.490;13.434;2022-12-07T03:34:45;7.17;;;2.80;;
20478;SDS011;10398;52.490;13.434;2022-12-07T03:37:23;4.73;;;2.33;;
20478;SDS011;10398;52.490;13.434;2022-12-07T03:42:31;7.00;;;2.57;;
20478;SDS011;10398;52.490;13.434;2022-12-07T03:44:58;3.10;;;1.70;;
20478;SDS011;10398;52.490;13.434;2022-12-07T03:47:29;6.47;;;2.50;;
20478;SDS011;10398;52.490;13.434;2022-12-07T03:50:07;6.37;;;2.40;;
20478;SDS011;10398;52.490;13.434;2022-12-07T03:52:43;4.27;;;2.17;;
20478;SDS011;10398;52.490;13.434;2022-12-07T03:57:53;6.10;;;2.30;;
20478;SDS011;10398;52.490;13.434;2022-12-07T04:00:24;6.77;;;2.47;;
20478;SDS011;10398;52.490;13.434;2022-12-07T04:02:52;5.63;;;2.60;;
20478;SDS011;10398;52.490;13.434;2022-12-07T04:05:18;6.27;;;2.60;;
20478;SDS011;10398;52.490;13.434;2022-12-07T04:07:44;4.50;;;2.63;;
20478;SDS011;10398;52.490;13.434;2022-12-07T04:10:10;7.80;;;3.33;;
20478;SDS011;10398;52.490;13.434;2022-12-07T04:12:36;6.80;;;2.80;;
20478;SDS011;10398;52.490;13.434;2022-12-07T04:15:02;7.47;;;3.13;;
20478;SDS011;10398;52.490;13.434;2022-12-07T04:17:28;6.33;;;3.03;;
20478;SDS011;10398;52.490;13.434;2022-12-07T04:19:53;7.60;;;3.23;;
20478;SDS011;10398;52.490;13.434;2022-12-07T04:22:19;9.43;;;3.33;;
20478;SDS011;10398;52.490;13.434;2022-12-07T04:24:45;8.37;;;3.40;;
20478;SDS011;10398;52.490;13.434;2022-12-07T04:27:10;7.43;;;3.33;;
20478;SDS011;10398;52.490;13.434;2022-12-07T04:29:36;7.77;;;3.33;;
20478;SDS011;10398;52.490;13.434;2022-12-07T04:32:02;8.83;;;3.20;;
20478;SDS011;10398;52.490;13.434;2022-12-07T04:34:27;9.23;;;3.50;;
20478;SDS011;10398;52.490;13.434;2022-12-07T04:36:53;10.03;;;3.53;;
20478;SDS011;10398;52.490;13.434;2022-12-07T04:39:26;8.47;;;3.90;;
20478;SDS011;10398;52.490;13.434;2022-12-07T04:41:54;5.10;;;2.47;;
20478;SDS011;10398;52.490;13.434;2022-12-07T04:44:20;9.37;;;3.73;;
20478;SDS011;10398;52.490;13.434;2022-12-07T04:46:47;9.60;;;3.77;;
20478;SDS011;10398;52.490;13.434;2022-12-07T04:49:13;12.10;;;4.77;;
20478;SDS011;10398;52.490;13.434;2022-12-07T04:51:39;9.10;;;4.13;;
20478;SDS011;10398;52.490;13.434;2022-12-07T04:54:05;9.50;;;4.27;;
20478;SDS011;10398;52.490;13.434;2022-12-07T04:56:31;9.10;;;4.53;;
20478;SDS011;10398;52.490;13.434;2022-12-07T04:58:57;9.77;;;4.20;;
20478;SDS011;10398;52.490;13.434;2022-12-07T05:01:23;10.23;;;4.47;;
20478;SDS011;10398;52.490;13.434;2022-12-07T05:03:49;11.47;;;4.33;;
20478;SDS011;10398;52.490;13.434;2022-12-07T05:06:15;12.83;;;4.93;;
20478;SDS011;10398;52.490;13.434;2022-12-07T05:08:41;15.53;;;5.70;;
20478;SDS011;10398;52.490;13.434;2022-12-07T05:11:08;10.97;;;4.47;;
20478;SDS011;10398;52.490;13.434;2022-12-07T05:13:34;12.83;;;4.70;;
20478;SDS011;10398;52.490;13.434;2022-12-07T05:16:01;14.37;;;5.27;;
20478;SDS011;10398;52.490;13.434;2022-12-07T05:18:27;15.70;;;4.93;;
20478;SDS011;10398;52.490;13.434;2022-12-07T05:20:52;14.77;;;6.13;;
20478;SDS011;10398;52.490;13.434;2022-12-07T05:23:18;11.43;;;4.70;;
20478;SDS011;10398;52.490;13.434;2022-12-07T05:25:44;16.23;;;5.93;;
20478;SDS011;10398;52.490;13.434;2022-12-07T05:28:09;11.87;;;4.20;;
20478;SDS011;10398;52.490;13.434;2022-12-07T05:30:35;13.27;;;5.40;;
20478;SDS011;10398;52.490;13.434;2022-12-07T05:33:01;15.23;;;5.30;;
20478;SDS011;10398;52.490;13.434;2022-12-07T05:35:27;16.10;;;5.60;;
20478;SDS011;10398;52.490;13.434;2022-12-07T05:37:53;13.23;;;5.03;;
20478;SDS011;10398;52.490;13.434;2022-12-07T05:40:20;11.07;;;5.33;;
20478;SDS011;10398;52.490;13.434;2022-12-07T05:42:45;11.83;;;5.30;;
20478;SDS011;10398;52.490;13.434;2022-12-07T05:45:11;19.63;;;5.97;;
20478;SDS011;10398;52.490;13.434;2022-12-07T05:47:37;12.13;;;4.83;;
20478;SDS011;10398;52.490;13.434;2022-12-07T05:50:03;14.70;;;5.63;;
20478;SDS011;10398;52.490;13.434;2022-12-07T05:52:30;12.80;;;5.23;;
20478;SDS011;10398;52.490;13.434;2022-12-07T05:54:56;12.70;;;5.67;;
20478;SDS011;10398;52.490;13.434;2022-12-07T05:57:21;16.27;;;5.80;;
20478;SDS011;10398;52.490;13.434;2022-12-07T05:59:47;16.63;;;6.07;;
20478;SDS011;10398;52.490;13.434;2022-12-07T06:02:14;13.90;;;5.60;;
20478;SDS011;10398;52.490;13.434;2022-12-07T06:04:43;17.47;;;7.43;;
20478;SDS011;10398;52.490;13.434;2022-12-07T06:07:10;17.43;;;6.00;;
20478;SDS011;10398;52.490;13.434;2022-12-07T06:09:37;15.93;;;6.53;;
20478;SDS011;10398;52.490;13.434;2022-12-07T06:12:03;12.43;;;5.97;;
20478;SDS011;10398;52.490;13.434;2022-12-07T06:14:48;16.37;;;6.53;;
20478;SDS011;10398;52.490;13.434;2022-12-07T06:17:13;19.00;;;6.40;;
20478;SDS011;10398;52.490;13.434;2022-12-07T06:19:40;17.50;;;6.83;;
20478;SDS011;10398;52.490;13.434;2022-12-07T06:22:06;19.77;;;6.87;;
20478;SDS011;10398;52.490;13.434;2022-12-07T06:24:32;19.23;;;6.67;;
20478;SDS011;10398;52.490;13.434;2022-12-07T06:26:58;18.40;;;7.07;;
20478;SDS011;10398;52.490;13.434;2022-12-07T06:29:24;20.37;;;7.07;;
20478;SDS011;10398;52.490;13.434;2022-12-07T06:31:50;19.67;;;7.37;;
20478;SDS011;10398;52.490;13.434;2022-12-07T06:34:17;15.40;;;6.27;;
20478;SDS011;10398;52.490;13.434;2022-12-07T06:36:45;16.03;;;6.50;;
20478;SDS011;10398;52.490;13.434;2022-12-07T06:39:16;16.17;;;6.10;;
20478;SDS011;10398;52.490;13.434;2022-12-07T06:41:46;19.90;;;6.53;;
20478;SDS011;10398;52.490;13.434;2022-12-07T06:44:12;18.80;;;5.93;;
20478;SDS011;10398;52.490;13.434;2022-12-07T06:46:38;16.03;;;6.63;;
20478;SDS011;10398;52.490;13.434;2022-12-07T06:49:04;18.27;;;5.97;;
20478;SDS011;10398;52.490;13.434;2022-12-07T06:51:31;12.93;;;5.57;;
20478;SDS011;10398;52.490;13.434;2022-12-07T06:53:57;11.53;;;5.10;;
20478;SDS011;10398;52.490;13.434;2022-12-07T06:56:23;19.23;;;6.10;;
20478;SDS011;10398;52.490;13.434;2022-12-07T06:58:48;13.53;;;5.43;;
20478;SDS011;10398;52.490;13.434;2022-12-07T07:01:15;17.00;;;6.53;;
20478;SDS011;10398;52.490;13.434;2022-12-07T07:03:43;13.80;;;5.57;;
20478;SDS011;10398;52.490;13.434;2022-12-07T07:06:09;14.43;;;5.80;;
20478;SDS011;10398;52.490;13.434;2022-12-07T07:08:36;13.87;;;5.70;;
20478;SDS011;10398;52.490;13.434;2022-12-07T07:11:03;11.93;;;5.57;;
20478;SDS011;10398;52.490;13.434;2022-12-07T07:13:29;20.00;;;6.10;;
20478;SDS011;10398;52.490;13.434;2022-12-07T07:15:54;14.57;;;5.93;;
20478;SDS011;10398;52.490;13.434;2022-12-07T07:18:21;19.50;;;7.00;;
20478;SDS011;10398;52.490;13.434;2022-12-07T07:20:46;16.60;;;6.07;;
20478;SDS011;10398;52.490;13.434;2022-12-07T07:23:12;17.67;;;6.57;;
20478;SDS011;10398;52.490;13.434;2022-12-07T07:25:38;20.57;;;7.10;;
20478;SDS011;10398;52.490;13.434;2022-12-07T07:28:04;17.00;;;6.17;;
20478;SDS011;10398;52.490;13.434;2022-12-07T07:30:29;19.00;;;6.33;;
20478;SDS011;10398;52.490;13.434;2022-12-07T07:32:59;16.37;;;6.07;;
20478;SDS011;10398;52.490;13.434;2022-12-07T07:35:26;19.37;;;6.27;;
20478;SDS011;10398;52.490;13.434;2022-12-07T07:37:52;14.97;;;5.60;;
20478;SDS011;10398;52.490;13.434;2022-12-07T07:40:18;14.47;;;5.60;;
20478;SDS011;10398;52.490;13.434;2022-12-07T07:42:46;15.80;;;5.57;;
20478;SDS011;10398;52.490;13.434;2022-12-07T07:45:13;14.57;;;5.17;;
20478;SDS011;10398;52.490;13.434;2022-12-07T07:47:39;13.37;;;5.47;;
20478;SDS011;10398;52.490;13.434;2022-12-07T07:50:05;10.00;;;4.50;;
20478;SDS011;10398;52.490;13.434;2022-12-07T07:52:31;14.33;;;4.87;;
20478;SDS011;10398;52.490;13.434;2022-12-07T07:55:03;12.27;;;5.17;;
20478;SDS011;10398;52.490;13.434;2022-12-07T07:57:30;12.23;;;4.93;;
20478;SDS011;10398;52.490;13.434;2022-12-07T07:59:55;12.47;;;4.93;;
20478;SDS011;10398;52.490;13.434;2022-12-07T08:02:21;12.60;;;4.87;;
20478;SDS011;10398;52.490;13.434;2022-12-07T08:04:48;14.87;;;5.30;;
20478;SDS011;10398;52.490;13.434;2022-12-07T08:07:14;12.30;;;4.40;;
20478;SDS011;10398;52.490;13.434;2022-12-07T08:09:40;13.73;;;4.67;;
20478;SDS011;10398;52.490;13.434;2022-12-07T08:12:06;16.53;;;4.80;;
20478;SDS011;10398;52.490;13.434;2022-12-07T08:14:32;8.83;;;4.07;;
20478;SDS011;10398;52.490;13.434;2022-12-07T08:16:59;17.97;;;5.73;;
20478;SDS011;10398;52.490;13.434;2022-12-07T08:19:24;10.30;;;3.93;;
20478;SDS011;10398;52.490;13.434;2022-12-07T08:21:50;10.07;;;4.33;;
20478;SDS011;10398;52.490;13.434;2022-12-07T08:24:16;7.33;;;3.50;;
20478;SDS011;10398;52.490;13.434;2022-12-07T08:26:42;6.70;;;3.43;;
20478;SDS011;10398;52.490;13.434;2022-12-07T08:29:08;12.43;;;4.30;;
20478;SDS011;10398;52.490;13.434;2022-12-07T08:31:34;12.17;;;3.80;;
20478;SDS011;10398;52.490;13.434;2022-12-07T08:34:00;8.00;;;3.00;;
20478;SDS011;10398;52.490;13.434;2022-12-07T08:36:25;11.63;;;3.63;;
20478;SDS011;10398;52.490;13.434;2022-12-07T08:38:51;11.90;;;3.50;;
20478;SDS011;10398;52.490;13.434;2022-12-07T08:41:17;7.30;;;2.90;;
20478;SDS011;10398;52.490;13.434;2022-12-07T08:43:43;6.93;;;2.70;;
20478;SDS011;10398;52.490;13.434;2022-12-07T08:46:10;5.80;;;2.53;;
20478;SDS011;10398;52.490;13.434;2022-12-07T08:48:46;5.17;;;2.63;;
20478;SDS011;10398;52.490;13.434;2022-12-07T08:51:26;3.03;;;2.07;;
20478;SDS011;10398;52.490;13.434;2022-12-07T08:53:52;3.90;;;2.20;;
20478;SDS011;10398;52.490;13.434;2022-12-07T08:56:20;4.30;;;2.03;;
20478;SDS011;10398;52.490;13.434;2022-12-07T08:58:46;3.03;;;1.47;;
20478;SDS011;10398;52.490;13.434;2022-12-07T09:01:13;4.43;;;1.70;;
20478;SDS011;10398;52.490;13.434;2022-12-07T09:03:38;2.83;;;1.20;;
20478;SDS011;10398;52.490;13.434;2022-12-07T09:06:05;4.53;;;1.53;;
20478;SDS011;10398;52.490;13.434;2022-12-07T09:08:33;3.03;;;1.53;;
20478;SDS011;10398;52.490;13.434;2022-12-07T09:11:02;1.97;;;1.07;;
20478;SDS011;10398;52.490;13.434;2022-12-07T09:13:28;3.20;;;1.37;;
20478;SDS011;10398;52.490;13.434;2022-12-07T09:15:53;3.50;;;1.50;;
20478;SDS011;10398;52.490;13.434;2022-12-07T09:18:19;6.53;;;1.20;;
20478;SDS011;10398;52.490;13.434;2022-12-07T09:20:45;2.83;;;1.40;;
20478;SDS011;10398;52.490;13.434;2022-12-07T09:23:11;2.53;;;1.30;;
20478;SDS011;10398;52.490;13.434;2022-12-07T09:25:37;4.77;;;1.50;;
20478;SDS011;10398;52.490;13.434;2022-12-07T09:28:02;2.07;;;1.40;;
20478;SDS011;10398;52.490;13.434;2022-12-07T09:30:28;2.43;;;1.17;;
20478;SDS011;10398;52.490;13.434;2022-12-07T09:32:54;3.57;;;1.50;;
20478;SDS011;10398;52.490;13.434;2022-12-07T09:35:21;5.40;;;1.30;;
20478;SDS011;10398;52.490;13.434;2022-12-07T09:37:48;2.60;;;1.30;;
20478;SDS011;10398;52.490;13.434;2022-12-07T09:40:14;2.37;;;1.37;;
20478;SDS011;10398;52.490;13.434;2022-12-07T09:42:43;3.40;;;1.50;;
20478;SDS011;10398;52.490;13.434;2022-12-07T09:47:53;4.80;;;1.70;;
20478;SDS011;10398;52.490;13.434;2022-12-07T09:50:23;3.47;;;1.53;;
20478;SDS011;10398;52.490;13.434;2022-12-07T09:52:51;3.37;;;1.50;;
20478;SDS011;10398;52.490;13.434;2022-12-07T09:55:22;3.73;;;1.20;;
20478;SDS011;10398;52.490;13.434;2022-12-07T09:57:52;2.53;;;0.87;;
20478;SDS011;10398;52.490;13.434;2022-12-07T10:00:19;2.80;;;1.10;;
20478;SDS011;10398;52.490;13.434;2022-12-07T10:02:49;4.80;;;1.37;;
20478;SDS011;10398;52.490;13.434;2022-12-07T10:06:02;3.43;;;1.63;;
20478;SDS011;10398;52.490;13.434;2022-12-07T10:08:13;3.95;;;1.85;;
20478;SDS011;10398;52.490;13.434;2022-12-07T10:10:42;3.70;;;1.60;;
20478;SDS011;10398;52.490;13.434;2022-12-07T10:13:15;7.20;;;2.70;;
20478;SDS011;10398;52.490;13.434;2022-12-07T10:15:59;5.47;;;1.80;;
20478;SDS011;10398;52.490;13.434;2022-12-07T10:18:30;6.03;;;2.40;;
20478;SDS011;10398;52.490;13.434;2022-12-07T10:23:42;2.47;;;1.37;;
20478;SDS011;10398;52.490;13.434;2022-12-07T10:26:28;2.93;;;1.63;;
20478;SDS011;10398;52.490;13.434;2022-12-07T10:28:59;1.97;;;1.30;;
20478;SDS011;10398;52.490;13.434;2022-12-07T10:31:42;3.00;;;1.20;;
20478;SDS011;10398;52.490;13.434;2022-12-07T10:36:49;2.23;;;1.50;;
20478;SDS011;10398;52.490;13.434;2022-12-07T10:39:22;2.17;;;1.27;;
20478;SDS011;10398;52.490;13.434;2022-12-07T10:41:56;6.37;;;1.93;;
20478;SDS011;10398;52.490;13.434;2022-12-07T10:44:33;2.90;;;1.97;;
20478;SDS011;10398;52.490;13.434;2022-12-07T11:00:14;4.33;;;1.33;;
20478;SDS011;10398;52.490;13.434;2022-12-07T11:05:28;3.60;;;1.90;;
20478;SDS011;10398;52.490;13.434;2022-12-07T11:22:04;7.70;;;2.07;;
20478;SDS011;10398;52.490;13.434;2022-12-07T11:24:40;3.50;;;1.80;;
20478;SDS011;10398;52.490;13.434;2022-12-07T11:27:37;3.03;;;1.47;;
20478;SDS011;10398;52.490;13.434;2022-12-07T11:30:27;4.77;;;1.87;;
20478;SDS011;10398;52.490;13.434;2022-12-07T11:33:17;3.40;;;1.70;;
20478;SDS011;10398;52.490;13.434;2022-12-07T11:38:35;3.80;;;1.60;;
20478;SDS011;10398;52.490;13.434;2022-12-07T11:41:04;4.87;;;2.30;;
20478;SDS011;10398;52.490;13.434;2022-12-07T11:43:50;3.87;;;1.80;;
20478;SDS011;10398;52.490;13.434;2022-12-07T11:46:17;4.60;;;1.60;;
20478;SDS011;10398;52.490;13.434;2022-12-07T11:51:14;8.27;;;2.70;;
20478;SDS011;10398;52.490;13.434;2022-12-07T11:53:48;3.40;;;1.80;;
20478;SDS011;10398;52.490;13.434;2022-12-07T11:56:16;4.80;;;1.93;;
20478;SDS011;10398;52.490;13.434;2022-12-07T12:01:14;5.63;;;2.30;;
20478;SDS011;10398;52.490;13.434;2022-12-07T12:03:50;4.17;;;1.77;;
20478;SDS011;10398;52.490;13.434;2022-12-07T12:06:22;5.93;;;1.80;;
20478;SDS011;10398;52.490;13.434;2022-12-07T12:14:37;2.13;;;1.53;;
20478;SDS011;10398;52.490;13.434;2022-12-07T12:20:28;5.00;;;2.10;;
20478;SDS011;10398;52.490;13.434;2022-12-07T12:23:17;6.67;;;2.20;;
20478;SDS011;10398;52.490;13.434;2022-12-07T12:26:06;9.70;;;2.00;;
20478;SDS011;10398;52.490;13.434;2022-12-07T12:28:52;6.90;;;1.90;;
20478;SDS011;10398;52.490;13.434;2022-12-07T12:33:56;9.93;;;1.87;;
20478;SDS011;10398;52.490;13.434;2022-12-07T12:39:12;8.30;;;2.00;;
20478;SDS011;10398;52.490;13.434;2022-12-07T12:46:53;8.33;;;1.63;;
20478;SDS011;10398;52.490;13.434;2022-12-07T12:54:36;7.47;;;1.57;;
20478;SDS011;10398;52.490;13.434;2022-12-07T12:57:10;4.77;;;1.40;;
20478;SDS011;10398;52.490;13.434;2022-12-07T13:04:51;4.60;;;1.40;;
20478;SDS011;10398;52.490;13.434;2022-12-07T13:10:22;4.90;;;1.73;;
20478;SDS011;10398;52.490;13.434;2022-12-07T13:12:59;5.13;;;1.57;;
20478;SDS011;10398;52.490;13.434;2022-12-07T13:20:58;5.10;;;1.27;;
20478;SDS011;10398;52.490;13.434;2022-12-07T13:28:40;5.27;;;1.20;;
20478;SDS011;10398;52.490;13.434;2022-12-07T13:31:24;3.70;;;1.40;;
20478;SDS011;10398;52.490;13.434;2022-12-07T13:34:02;4.57;;;1.10;;
20478;SDS011;10398;52.490;13.434;2022-12-07T13:36:38;4.00;;;1.43;;
20478;SDS011;10398;52.490;13.434;2022-12-07T13:41:41;6.67;;;1.53;;
20478;SDS011;10398;52.490;13.434;2022-12-07T13:44:12;4.97;;;1.27;;
20478;SDS011;10398;52.490;13.434;2022-12-07T13:49:23;4.20;;;1.30;;
20478;SDS011;10398;52.490;13.434;2022-12-07T13:51:51;3.07;;;1.37;;
20478;SDS011;10398;52.490;13.434;2022-12-07T13:54:17;3.80;;;1.47;;
20478;SDS011;10398;52.490;13.434;2022-12-07T13:56:44;6.57;;;1.27;;
20478;SDS011;10398;52.490;13.434;2022-12-07T13:59:16;4.57;;;1.50;;
20478;SDS011;10398;52.490;13.434;2022-12-07T14:01:45;9.63;;;1.70;;
20478;SDS011;10398;52.490;13.434;2022-12-07T14:06:58;2.27;;;1.20;;
20478;SDS011;10398;52.490;13.434;2022-12-07T14:09:26;3.43;;;1.13;;
20478;SDS011;10398;52.490;13.434;2022-12-07T14:11:54;7.37;;;1.57;;
20478;SDS011;10398;52.490;13.434;2022-12-07T14:14:25;7.37;;;1.30;;
20478;SDS011;10398;52.490;13.434;2022-12-07T14:19:47;2.40;;;0.90;;
20478;SDS011;10398;52.490;13.434;2022-12-07T14:27:38;5.00;;;1.40;;
20478;SDS011;10398;52.490;13.434;2022-12-07T14:30:04;7.37;;;1.50;;
20478;SDS011;10398;52.490;13.434;2022-12-07T14:32:31;3.77;;;1.40;;
20478;SDS011;10398;52.490;13.434;2022-12-07T14:35:08;7.90;;;1.47;;
20478;SDS011;10398;52.490;13.434;2022-12-07T14:37:36;5.37;;;1.53;;
20478;SDS011;10398;52.490;13.434;2022-12-07T14:40:02;6.17;;;1.37;;
20478;SDS011;10398;52.490;13.434;2022-12-07T14:42:29;5.33;;;1.43;;
20478;SDS011;10398;52.490;13.434;2022-12-07T14:44:56;4.47;;;1.37;;
20478;SDS011;10398;52.490;13.434;2022-12-07T14:47:23;9.40;;;1.10;;
20478;SDS011;10398;52.490;13.434;2022-12-07T14:49:49;3.03;;;1.37;;
20478;SDS011;10398;52.490;13.434;2022-12-07T14:52:19;5.73;;;1.37;;
20478;SDS011;10398;52.490;13.434;2022-12-07T14:54:48;11.37;;;1.40;;
20478;SDS011;10398;52.490;13.434;2022-12-07T14:57:13;5.40;;;1.70;;
20478;SDS011;10398;52.490;13.434;2022-12-07T14:59:39;5.37;;;1.47;;
20478;SDS011;10398;52.490;13.434;2022-12-07T15:02:05;3.63;;;1.50;;
20478;SDS011;10398;52.490;13.434;2022-12-07T15:04:34;2.77;;;1.00;;
20478;SDS011;10398;52.490;13.434;2022-12-07T15:07:03;2.67;;;1.10;;
20478;SDS011;10398;52.490;13.434;2022-12-07T15:09:30;11.87;;;1.50;;
20478;SDS011;10398;52.490;13.434;2022-12-07T15:11:56;6.90;;;1.87;;
20478;SDS011;10398;52.490;13.434;2022-12-07T15:14:22;12.23;;;1.80;;
20478;SDS011;10398;52.490;13.434;2022-12-07T15:16:48;7.90;;;1.87;;
20478;SDS011;10398;52.490;13.434;2022-12-07T15:19:17;5.37;;;2.20;;
20478;SDS011;10398;52.490;13.434;2022-12-07T15:21:44;5.10;;;1.43;;
20478;SDS011;10398;52.490;13.434;2022-12-07T15:24:11;5.70;;;1.27;;
20478;SDS011;10398;52.490;13.434;2022-12-07T15:26:37;8.93;;;2.10;;
20478;SDS011;10398;52.490;13.434;2022-12-07T15:29:03;4.90;;;1.80;;
20478;SDS011;10398;52.490;13.434;2022-12-07T15:31:29;8.10;;;1.93;;
20478;SDS011;10398;52.490;13.434;2022-12-07T15:33:55;7.83;;;1.93;;
20478;SDS011;10398;52.490;13.434;2022-12-07T15:36:21;2.63;;;1.50;;
20478;SDS011;10398;52.490;13.434;2022-12-07T15:38:49;4.30;;;1.20;;
20478;SDS011;10398;52.490;13.434;2022-12-07T15:41:16;6.53;;;1.57;;
20478;SDS011;10398;52.490;13.434;2022-12-07T15:43:42;10.57;;;1.53;;
20478;SDS011;10398;52.490;13.434;2022-12-07T15:46:30;3.63;;;1.40;;
20478;SDS011;10398;52.490;13.434;2022-12-07T15:48:56;6.33;;;1.40;;
20478;SDS011;10398;52.490;13.434;2022-12-07T15:51:22;3.57;;;1.20;;
20478;SDS011;10398;52.490;13.434;2022-12-07T15:53:47;4.27;;;1.40;;
20478;SDS011;10398;52.490;13.434;2022-12-07T15:56:13;7.83;;;2.40;;
20478;SDS011;10398;52.490;13.434;2022-12-07T15:58:39;8.60;;;1.80;;
20478;SDS011;10398;52.490;13.434;2022-12-07T16:01:11;5.23;;;1.70;;
20478;SDS011;10398;52.490;13.434;2022-12-07T16:03:41;9.37;;;2.43;;
20478;SDS011;10398;52.490;13.434;2022-12-07T16:06:07;5.00;;;1.37;;
20478;SDS011;10398;52.490;13.434;2022-12-07T16:08:32;10.07;;;1.70;;
20478;SDS011;10398;52.490;13.434;2022-12-07T16:10:58;3.30;;;1.43;;
20478;SDS011;10398;52.490;13.434;2022-12-07T16:13:24;4.50;;;2.30;;
20478;SDS011;10398;52.490;13.434;2022-12-07T16:15:50;8.27;;;1.70;;
20478;SDS011;10398;52.490;13.434;2022-12-07T16:18:15;6.10;;;2.33;;
20478;SDS011;10398;52.490;13.434;2022-12-07T16:20:41;10.23;;;1.90;;
20478;SDS011;10398;52.490;13.434;2022-12-07T16:23:07;4.87;;;1.50;;
20478;SDS011;10398;52.490;13.434;2022-12-07T16:25:33;8.07;;;1.60;;
20478;SDS011;10398;52.490;13.434;2022-12-07T16:27:58;13.50;;;2.10;;
20478;SDS011;10398;52.490;13.434;2022-12-07T16:30:24;7.67;;;1.30;;
20478;SDS011;10398;52.490;13.434;2022-12-07T16:32:50;3.90;;;1.33;;
20478;SDS011;10398;52.490;13.434;2022-12-07T16:35:16;10.10;;;1.93;;
20478;SDS011;10398;52.490;13.434;2022-12-07T16:37:42;3.80;;;1.30;;
20478;SDS011;10398;52.490;13.434;2022-12-07T16:40:08;7.73;;;1.63;;
20478;SDS011;10398;52.490;13.434;2022-12-07T16:42:34;6.20;;;1.17;;
20478;SDS011;10398;52.490;13.434;2022-12-07T16:45:02;3.23;;;1.30;;
20478;SDS011;10398;52.490;13.434;2022-12-07T16:47:29;4.77;;;1.60;;
20478;SDS011;10398;52.490;13.434;2022-12-07T16:49:54;4.63;;;1.40;;
20478;SDS011;10398;52.490;13.434;2022-12-07T16:52:20;7.77;;;1.97;;
20478;SDS011;10398;52.490;13.434;2022-12-07T16:54:47;6.50;;;1.57;;
20478;SDS011;10398;52.490;13.434;2022-12-07T16:57:13;8.10;;;1.40;;
20478;SDS011;10398;52.490;13.434;2022-12-07T16:59:39;4.37;;;1.23;;
20478;SDS011;10398;52.490;13.434;2022-12-07T17:02:05;3.93;;;1.40;;